sensor_id;sensor_type;location;lat;lon;timestamp;P1;durP1;ratioP1;P2;durP2;ratioP2
11651;SDS011;5882;48.818;9.114;2023-06-19T01:09:24;10.23;;;9.82;;
11651;SDS011;5882;48.818;9.114;2023-06-19T01:12:12;9.93;;;9.52;;
11651;SDS011;5882;48.818;9.114;2023-06-19T01:15:11;9.50;;;9.10;;
11651;SDS011;5882;48.818;9.114;2023-06-19T01:18:05;10.20;;;9.80;;
11651;SDS011;5882;48.818;9.114;2023-06-19T01:20:50;13.57;;;13.05;;
11651;SDS011;5882;48.818;9.114;2023-06-19T01:28:47;12.70;;;12.20;;
11651;SDS011;5882;48.818;9.114;2023-06-19T01:34:03;17.33;;;16.70;;
11651;SDS011;5882;48.818;9.114;2023-06-19T01:36:54;14.85;;;14.27;;
11651;SDS011;5882;48.818;9.114;2023-06-19T01:39:48;20.92;;;20.15;;
11651;SDS011;5882;48.818;9.114;2023-06-19T01:42:34;29.20;;;28.05;;
11651;SDS011;5882;48.818;9.114;2023-06-19T01:50:48;39.60;;;38.08;;
11651;SDS011;5882;48.818;9.114;2023-06-19T01:53:34;37.15;;;35.70;;
11651;SDS011;5882;48.818;9.114;2023-06-19T01:56:20;34.92;;;33.58;;
11651;SDS011;5882;48.818;9.114;2023-06-19T01:59:13;27.30;;;26.23;;
11651;SDS011;5882;48.818;9.114;2023-06-19T02:02:09;13.65;;;13.15;;
11651;SDS011;5882;48.818;9.114;2023-06-19T02:07:37;12.40;;;11.90;;
11651;SDS011;5882;48.818;9.114;2023-06-19T02:10:28;12.68;;;12.18;;
11651;SDS011;5882;48.818;9.114;2023-06-19T02:13:14;13.15;;;12.65;;
11651;SDS011;5882;48.818;9.114;2023-06-19T02:16:08;18.92;;;18.23;;
11651;SDS011;5882;48.818;9.114;2023-06-19T02:19:10;24.00;;;23.10;;
11651;SDS011;5882;48.818;9.114;2023-06-19T02:22:14;27.17;;;26.15;;
11651;SDS011;5882;48.818;9.114;2023-06-19T02:25:09;18.85;;;18.13;;
11651;SDS011;5882;48.818;9.114;2023-06-19T02:28:11;17.50;;;16.83;;
11651;SDS011;5882;48.818;9.114;2023-06-19T02:31:06;13.68;;;13.15;;
11651;SDS011;5882;48.818;9.114;2023-06-19T02:39:05;6.70;;;6.43;;
11651;SDS011;5882;48.818;9.114;2023-06-19T04:02:23;18.23;;;17.52;;
11651;SDS011;5882;48.818;9.114;2023-06-19T04:05:09;17.80;;;17.10;;
11651;SDS011;5882;48.818;9.114;2023-06-19T04:47:55;9.75;;;9.38;;
11651;SDS011;5882;48.818;9.114;2023-06-19T04:58:25;9.70;;;9.30;;
11651;SDS011;5882;48.818;9.114;2023-06-19T05:01:11;9.82;;;9.43;;
11651;SDS011;5882;48.818;9.114;2023-06-19T05:04:02;10.95;;;10.55;;
11651;SDS011;5882;48.818;9.114;2023-06-19T05:06:51;11.50;;;11.07;;
11651;SDS011;5882;48.818;9.114;2023-06-19T05:09:44;11.63;;;11.10;;
11651;SDS011;5882;48.818;9.114;2023-06-19T05:12:29;11.25;;;10.85;;
11651;SDS011;5882;48.818;9.114;2023-06-19T05:15:14;9.95;;;9.55;;
11651;SDS011;5882;48.818;9.114;2023-06-19T05:17:59;8.95;;;8.57;;
11651;SDS011;5882;48.818;9.114;2023-06-19T05:20:53;8.27;;;7.97;;
11651;SDS011;5882;48.818;9.114;2023-06-19T05:23:39;8.13;;;7.82;;
11651;SDS011;5882;48.818;9.114;2023-06-19T05:26:26;8.00;;;7.70;;
11651;SDS011;5882;48.818;9.114;2023-06-19T05:29:12;9.43;;;9.13;;
11651;SDS011;5882;48.818;9.114;2023-06-19T05:31:57;11.55;;;11.15;;
11651;SDS011;5882;48.818;9.114;2023-06-19T05:34:44;16.08;;;15.48;;
11651;SDS011;5882;48.818;9.114;2023-06-19T05:37:35;16.33;;;15.73;;
11651;SDS011;5882;48.818;9.114;2023-06-19T05:40:22;14.07;;;13.55;;
11651;SDS011;5882;48.818;9.114;2023-06-19T05:43:07;14.63;;;14.07;;
11651;SDS011;5882;48.818;9.114;2023-06-19T05:45:58;13.65;;;13.15;;
11651;SDS011;5882;48.818;9.114;2023-06-19T05:48:43;12.90;;;12.43;;
11651;SDS011;5882;48.818;9.114;2023-06-19T05:51:39;11.57;;;11.15;;
11651;SDS011;5882;48.818;9.114;2023-06-19T05:54:26;13.75;;;13.25;;
11651;SDS011;5882;48.818;9.114;2023-06-19T05:57:11;14.73;;;14.15;;
11651;SDS011;5882;48.818;9.114;2023-06-19T05:59:59;18.48;;;17.80;;
11651;SDS011;5882;48.818;9.114;2023-06-19T06:02:44;21.88;;;21.08;;
11651;SDS011;5882;48.818;9.114;2023-06-19T06:05:31;25.85;;;24.88;;
11651;SDS011;5882;48.818;9.114;2023-06-19T06:08:16;19.05;;;18.35;;
11651;SDS011;5882;48.818;9.114;2023-06-19T06:11:02;17.60;;;16.92;;
11651;SDS011;5882;48.818;9.114;2023-06-19T06:13:49;14.73;;;14.20;;
11651;SDS011;5882;48.818;9.114;2023-06-19T06:16:34;14.07;;;13.57;;
11651;SDS011;5882;48.818;9.114;2023-06-19T06:19:19;14.27;;;13.73;;
11651;SDS011;5882;48.818;9.114;2023-06-19T06:22:06;13.38;;;12.88;;
11651;SDS011;5882;48.818;9.114;2023-06-19T06:28:35;15.30;;;14.70;;
11651;SDS011;5882;48.818;9.114;2023-06-19T06:31:21;19.73;;;19.00;;
11651;SDS011;5882;48.818;9.114;2023-06-19T06:34:06;21.48;;;20.67;;
11651;SDS011;5882;48.818;9.114;2023-06-19T06:36:53;21.65;;;20.85;;
11651;SDS011;5882;48.818;9.114;2023-06-19T06:39:38;18.30;;;17.60;;
11651;SDS011;5882;48.818;9.114;2023-06-19T06:42:24;13.13;;;12.63;;
11651;SDS011;5882;48.818;9.114;2023-06-19T06:45:10;15.82;;;15.23;;
11651;SDS011;5882;48.818;9.114;2023-06-19T06:47:56;18.38;;;17.67;;
11651;SDS011;5882;48.818;9.114;2023-06-19T06:50:41;29.98;;;28.88;;
11651;SDS011;5882;48.818;9.114;2023-06-19T06:53:27;27.40;;;26.40;;
11651;SDS011;5882;48.818;9.114;2023-06-19T06:56:13;26.80;;;25.77;;
11651;SDS011;5882;48.818;9.114;2023-06-19T06:58:58;23.27;;;22.40;;
11651;SDS011;5882;48.818;9.114;2023-06-19T07:01:47;20.02;;;19.30;;
11651;SDS011;5882;48.818;9.114;2023-06-19T07:04:32;21.40;;;20.60;;
11651;SDS011;5882;48.818;9.114;2023-06-19T07:07:18;17.27;;;16.60;;
11651;SDS011;5882;48.818;9.114;2023-06-19T07:10:03;15.52;;;14.93;;
11651;SDS011;5882;48.818;9.114;2023-06-19T07:12:50;12.15;;;11.68;;
11651;SDS011;5882;48.818;9.114;2023-06-19T07:15:36;11.07;;;10.68;;
11651;SDS011;5882;48.818;9.114;2023-06-19T07:18:22;10.98;;;10.57;;
11651;SDS011;5882;48.818;9.114;2023-06-19T07:21:10;10.70;;;10.30;;
11651;SDS011;5882;48.818;9.114;2023-06-19T07:23:55;10.95;;;10.55;;
11651;SDS011;5882;48.818;9.114;2023-06-19T07:26:41;10.35;;;9.95;;
11651;SDS011;5882;48.818;9.114;2023-06-19T07:29:26;11.85;;;11.45;;
11651;SDS011;5882;48.818;9.114;2023-06-19T07:32:11;12.52;;;12.02;;
11651;SDS011;5882;48.818;9.114;2023-06-19T07:35:08;10.82;;;10.43;;
11651;SDS011;5882;48.818;9.114;2023-06-19T07:37:54;16.33;;;15.73;;
11651;SDS011;5882;48.818;9.114;2023-06-19T07:40:44;6.75;;;6.55;;
11651;SDS011;5882;48.818;9.114;2023-06-19T07:43:29;6.35;;;6.15;;
11651;SDS011;5882;48.818;9.114;2023-06-19T07:46:14;9.57;;;9.23;;
11651;SDS011;5882;48.818;9.114;2023-06-19T07:49:01;10.75;;;10.38;;
11651;SDS011;5882;48.818;9.114;2023-06-19T07:51:47;19.48;;;18.73;;
11651;SDS011;5882;48.818;9.114;2023-06-19T07:54:33;25.05;;;24.10;;
11651;SDS011;5882;48.818;9.114;2023-06-19T07:57:19;28.65;;;27.58;;
11651;SDS011;5882;48.818;9.114;2023-06-19T08:00:07;25.63;;;24.65;;
11651;SDS011;5882;48.818;9.114;2023-06-19T08:02:56;34.45;;;33.15;;
11651;SDS011;5882;48.818;9.114;2023-06-19T08:05:41;16.80;;;16.20;;
11651;SDS011;5882;48.818;9.114;2023-06-19T08:08:35;13.43;;;12.93;;
11651;SDS011;5882;48.818;9.114;2023-06-19T08:11:20;8.65;;;8.35;;
11651;SDS011;5882;48.818;9.114;2023-06-19T08:14:06;7.03;;;6.72;;
11651;SDS011;5882;48.818;9.114;2023-06-19T08:17:08;5.82;;;5.63;;
11651;SDS011;5882;48.818;9.114;2023-06-19T08:19:56;6.70;;;6.50;;
11651;SDS011;5882;48.818;9.114;2023-06-19T08:22:41;8.05;;;7.75;;
11651;SDS011;5882;48.818;9.114;2023-06-19T08:25:27;7.70;;;7.40;;
11651;SDS011;5882;48.818;9.114;2023-06-19T08:28:12;8.60;;;8.30;;
11651;SDS011;5882;48.818;9.114;2023-06-19T08:30:58;8.75;;;8.45;;
11651;SDS011;5882;48.818;9.114;2023-06-19T08:33:46;9.52;;;9.18;;
11651;SDS011;5882;48.818;9.114;2023-06-19T08:36:32;10.93;;;10.52;;
11651;SDS011;5882;48.818;9.114;2023-06-19T08:39:18;10.30;;;9.90;;
11651;SDS011;5882;48.818;9.114;2023-06-19T08:42:08;12.80;;;12.32;;
11651;SDS011;5882;48.818;9.114;2023-06-19T08:44:56;12.38;;;11.88;;
11651;SDS011;5882;48.818;9.114;2023-06-19T08:47:41;12.63;;;12.13;;
11651;SDS011;5882;48.818;9.114;2023-06-19T08:50:32;12.57;;;12.07;;
11651;SDS011;5882;48.818;9.114;2023-06-19T08:53:17;11.77;;;11.38;;
11651;SDS011;5882;48.818;9.114;2023-06-19T08:56:03;11.85;;;11.35;;
11651;SDS011;5882;48.818;9.114;2023-06-19T08:58:50;11.70;;;11.30;;
11651;SDS011;5882;48.818;9.114;2023-06-19T09:01:35;12.90;;;12.40;;
11651;SDS011;5882;48.818;9.114;2023-06-19T09:04:21;14.30;;;13.70;;
11651;SDS011;5882;48.818;9.114;2023-06-19T09:07:07;10.20;;;9.80;;
11651;SDS011;5882;48.818;9.114;2023-06-19T09:13:18;28.60;;;27.50;;
11651;SDS011;5882;48.818;9.114;2023-06-19T09:16:05;21.98;;;21.17;;
11651;SDS011;5882;48.818;9.114;2023-06-19T09:18:50;25.73;;;24.73;;
11651;SDS011;5882;48.818;9.114;2023-06-19T09:21:35;24.85;;;23.92;;
11651;SDS011;5882;48.818;9.114;2023-06-19T09:24:24;29.65;;;28.52;;
11651;SDS011;5882;48.818;9.114;2023-06-19T09:27:18;31.83;;;30.42;;
11651;SDS011;5882;48.818;9.114;2023-06-19T09:30:05;26.42;;;25.42;;
11651;SDS011;5882;48.818;9.114;2023-06-19T09:32:51;27.20;;;26.20;;
11651;SDS011;5882;48.818;9.114;2023-06-19T09:35:36;24.17;;;23.27;;
11651;SDS011;5882;48.818;9.114;2023-06-19T09:38:24;28.00;;;26.92;;
11651;SDS011;5882;48.818;9.114;2023-06-19T09:41:12;28.27;;;27.17;;
11651;SDS011;5882;48.818;9.114;2023-06-19T09:43:57;29.00;;;27.90;;
11651;SDS011;5882;48.818;9.114;2023-06-19T09:46:44;24.23;;;23.33;;
11651;SDS011;5882;48.818;9.114;2023-06-19T09:49:32;24.27;;;23.38;;
11651;SDS011;5882;48.818;9.114;2023-06-19T09:52:19;22.20;;;21.40;;
11651;SDS011;5882;48.818;9.114;2023-06-19T09:55:06;22.20;;;21.40;;
11651;SDS011;5882;48.818;9.114;2023-06-19T09:57:53;21.83;;;20.98;;
11651;SDS011;5882;48.818;9.114;2023-06-19T10:00:40;21.88;;;21.08;;
11651;SDS011;5882;48.818;9.114;2023-06-19T10:03:29;25.00;;;24.08;;
11651;SDS011;5882;48.818;9.114;2023-06-19T10:06:16;29.23;;;28.13;;
11651;SDS011;5882;48.818;9.114;2023-06-19T10:09:07;20.20;;;19.40;;
11651;SDS011;5882;48.818;9.114;2023-06-19T10:11:52;18.65;;;17.95;;
11651;SDS011;5882;48.818;9.114;2023-06-19T10:14:44;18.90;;;18.20;;
11651;SDS011;5882;48.818;9.114;2023-06-19T10:17:29;15.15;;;14.55;;
11651;SDS011;5882;48.818;9.114;2023-06-19T10:20:22;12.88;;;12.38;;
11651;SDS011;5882;48.818;9.114;2023-06-19T10:23:10;12.65;;;12.15;;
11651;SDS011;5882;48.818;9.114;2023-06-19T10:25:56;11.75;;;11.35;;
11651;SDS011;5882;48.818;9.114;2023-06-19T10:28:45;10.15;;;9.75;;
11651;SDS011;5882;48.818;9.114;2023-06-19T10:31:30;9.13;;;8.73;;
11651;SDS011;5882;48.818;9.114;2023-06-19T10:34:15;7.65;;;7.35;;
11651;SDS011;5882;48.818;9.114;2023-06-19T10:37:00;8.35;;;8.05;;
11651;SDS011;5882;48.818;9.114;2023-06-19T10:39:47;13.02;;;12.52;;
11651;SDS011;5882;48.818;9.114;2023-06-19T10:42:31;13.65;;;13.10;;
11651;SDS011;5882;48.818;9.114;2023-06-19T10:45:16;11.57;;;11.18;;
11651;SDS011;5882;48.818;9.114;2023-06-19T10:48:01;12.38;;;11.90;;
11651;SDS011;5882;48.818;9.114;2023-06-19T10:50:48;17.33;;;16.70;;
11651;SDS011;5882;48.818;9.114;2023-06-19T10:53:33;22.40;;;21.55;;
11651;SDS011;5882;48.818;9.114;2023-06-19T10:56:19;19.50;;;18.77;;
11651;SDS011;5882;48.818;9.114;2023-06-19T10:59:05;14.23;;;13.73;;
11651;SDS011;5882;48.818;9.114;2023-06-19T11:01:52;11.20;;;10.80;;
11651;SDS011;5882;48.818;9.114;2023-06-19T11:04:37;9.43;;;9.07;;
11651;SDS011;5882;48.818;9.114;2023-06-19T11:07:23;8.60;;;8.30;;
11651;SDS011;5882;48.818;9.114;2023-06-19T11:10:08;10.88;;;10.48;;
11651;SDS011;5882;48.818;9.114;2023-06-19T11:13:04;15.98;;;15.38;;
11651;SDS011;5882;48.818;9.114;2023-06-19T11:15:49;29.75;;;28.65;;
11651;SDS011;5882;48.818;9.114;2023-06-19T11:18:35;19.05;;;18.35;;
11651;SDS011;5882;48.818;9.114;2023-06-19T11:21:21;23.23;;;22.33;;
11651;SDS011;5882;48.818;9.114;2023-06-19T11:24:11;18.08;;;17.38;;
11651;SDS011;5882;48.818;9.114;2023-06-19T11:27:00;20.13;;;19.35;;
11651;SDS011;5882;48.818;9.114;2023-06-19T11:29:46;23.13;;;22.23;;
11651;SDS011;5882;48.818;9.114;2023-06-19T11:32:32;18.08;;;17.27;;
11651;SDS011;5882;48.818;9.114;2023-06-19T11:35:17;19.00;;;18.27;;
11651;SDS011;5882;48.818;9.114;2023-06-19T11:38:05;19.92;;;19.15;;
11651;SDS011;5882;48.818;9.114;2023-06-19T11:40:52;23.63;;;22.75;;
11651;SDS011;5882;48.818;9.114;2023-06-19T11:43:37;27.70;;;26.67;;
11651;SDS011;5882;48.818;9.114;2023-06-19T11:46:34;27.08;;;26.08;;
11651;SDS011;5882;48.818;9.114;2023-06-19T11:49:19;30.00;;;28.80;;
11651;SDS011;5882;48.818;9.114;2023-06-19T11:52:06;27.17;;;26.08;;
11651;SDS011;5882;48.818;9.114;2023-06-19T11:54:51;42.50;;;40.85;;
11651;SDS011;5882;48.818;9.114;2023-06-19T11:57:36;33.88;;;32.58;;
11651;SDS011;5882;48.818;9.114;2023-06-19T12:00:21;29.75;;;28.60;;
11651;SDS011;5882;48.818;9.114;2023-06-19T12:03:08;25.90;;;24.90;;
11651;SDS011;5882;48.818;9.114;2023-06-19T12:05:55;20.58;;;19.80;;
11651;SDS011;5882;48.818;9.114;2023-06-19T12:08:40;26.88;;;25.88;;
11651;SDS011;5882;48.818;9.114;2023-06-19T12:11:25;26.42;;;25.42;;
11651;SDS011;5882;48.818;9.114;2023-06-19T12:14:10;26.98;;;25.95;;
11651;SDS011;5882;48.818;9.114;2023-06-19T12:16:55;31.40;;;30.20;;
11651;SDS011;5882;48.818;9.114;2023-06-19T12:19:41;32.28;;;31.08;;
11651;SDS011;5882;48.818;9.114;2023-06-19T12:22:26;34.15;;;32.85;;
11651;SDS011;5882;48.818;9.114;2023-06-19T12:25:11;36.50;;;35.10;;
11651;SDS011;5882;48.818;9.114;2023-06-19T12:27:56;40.58;;;39.03;;
11651;SDS011;5882;48.818;9.114;2023-06-19T12:30:47;32.72;;;31.42;;
11651;SDS011;5882;48.818;9.114;2023-06-19T12:33:35;32.95;;;31.67;;
11651;SDS011;5882;48.818;9.114;2023-06-19T12:36:23;32.00;;;30.77;;
11651;SDS011;5882;48.818;9.114;2023-06-19T12:39:09;34.10;;;32.80;;
11651;SDS011;5882;48.818;9.114;2023-06-19T12:41:59;21.58;;;20.77;;
11651;SDS011;5882;48.818;9.114;2023-06-19T12:44:44;25.25;;;24.25;;
11651;SDS011;5882;48.818;9.114;2023-06-19T12:47:31;37.78;;;36.33;;
11651;SDS011;5882;48.818;9.114;2023-06-19T12:50:17;30.10;;;29.00;;
11651;SDS011;5882;48.818;9.114;2023-06-19T12:53:03;25.15;;;24.25;;
11651;SDS011;5882;48.818;9.114;2023-06-19T12:55:48;26.75;;;25.75;;
11651;SDS011;5882;48.818;9.114;2023-06-19T12:58:33;31.80;;;30.55;;
11651;SDS011;5882;48.818;9.114;2023-06-19T13:01:18;28.50;;;27.40;;
11651;SDS011;5882;48.818;9.114;2023-06-19T13:04:03;26.13;;;25.13;;
11651;SDS011;5882;48.818;9.114;2023-06-19T13:06:48;34.28;;;32.97;;
11651;SDS011;5882;48.818;9.114;2023-06-19T13:09:35;25.00;;;24.05;;
11651;SDS011;5882;48.818;9.114;2023-06-19T13:12:24;21.20;;;20.40;;
11651;SDS011;5882;48.818;9.114;2023-06-19T13:15:09;19.92;;;19.17;;
11651;SDS011;5882;48.818;9.114;2023-06-19T13:17:54;20.55;;;19.75;;
11651;SDS011;5882;48.818;9.114;2023-06-19T13:21:04;19.58;;;18.77;;
11651;SDS011;5882;48.818;9.114;2023-06-19T13:23:49;18.85;;;18.15;;
11651;SDS011;5882;48.818;9.114;2023-06-19T13:26:34;18.35;;;17.65;;
11651;SDS011;5882;48.818;9.114;2023-06-19T13:29:20;17.75;;;17.08;;
11651;SDS011;5882;48.818;9.114;2023-06-19T13:32:05;14.30;;;13.80;;
11651;SDS011;5882;48.818;9.114;2023-06-19T13:34:53;22.77;;;21.88;;
11651;SDS011;5882;48.818;9.114;2023-06-19T13:37:40;29.08;;;27.95;;
11651;SDS011;5882;48.818;9.114;2023-06-19T13:40:25;12.60;;;12.13;;
11651;SDS011;5882;48.818;9.114;2023-06-19T13:43:14;12.52;;;12.05;;
11651;SDS011;5882;48.818;9.114;2023-06-19T13:46:00;17.20;;;16.52;;
11651;SDS011;5882;48.818;9.114;2023-06-19T13:48:47;22.17;;;21.33;;
11651;SDS011;5882;48.818;9.114;2023-06-19T13:51:36;24.13;;;23.23;;
11651;SDS011;5882;48.818;9.114;2023-06-19T13:54:23;31.55;;;30.35;;
11651;SDS011;5882;48.818;9.114;2023-06-19T13:57:08;28.17;;;27.08;;
11651;SDS011;5882;48.818;9.114;2023-06-19T13:59:53;20.85;;;20.05;;
11651;SDS011;5882;48.818;9.114;2023-06-19T14:02:38;24.30;;;23.38;;
11651;SDS011;5882;48.818;9.114;2023-06-19T14:05:25;25.60;;;24.60;;
11651;SDS011;5882;48.818;9.114;2023-06-19T14:08:10;27.00;;;26.00;;
11651;SDS011;5882;48.818;9.114;2023-06-19T14:10:56;27.13;;;26.13;;
11651;SDS011;5882;48.818;9.114;2023-06-19T14:13:41;30.52;;;29.35;;
11651;SDS011;5882;48.818;9.114;2023-06-19T14:16:29;16.45;;;15.85;;
11651;SDS011;5882;48.818;9.114;2023-06-19T14:19:14;29.23;;;28.10;;
11651;SDS011;5882;48.818;9.114;2023-06-19T14:21:59;20.13;;;19.35;;
11651;SDS011;5882;48.818;9.114;2023-06-19T14:24:45;25.27;;;24.27;;
11651;SDS011;5882;48.818;9.114;2023-06-19T14:27:35;21.90;;;21.10;;
11651;SDS011;5882;48.818;9.114;2023-06-19T14:30:20;19.23;;;18.52;;
11651;SDS011;5882;48.818;9.114;2023-06-19T14:33:05;20.85;;;20.08;;
11651;SDS011;5882;48.818;9.114;2023-06-19T14:35:54;22.48;;;21.63;;
11651;SDS011;5882;48.818;9.114;2023-06-19T14:38:39;20.20;;;19.45;;
11651;SDS011;5882;48.818;9.114;2023-06-19T14:41:24;23.38;;;22.50;;
11651;SDS011;5882;48.818;9.114;2023-06-19T14:44:10;19.42;;;18.70;;
11651;SDS011;5882;48.818;9.114;2023-06-19T14:46:55;18.17;;;17.50;;
11651;SDS011;5882;48.818;9.114;2023-06-19T14:49:40;20.98;;;20.20;;
11651;SDS011;5882;48.818;9.114;2023-06-19T14:52:26;16.95;;;16.35;;
11651;SDS011;5882;48.818;9.114;2023-06-19T14:55:11;12.55;;;12.07;;
11651;SDS011;5882;48.818;9.114;2023-06-19T14:57:56;19.23;;;18.52;;
11651;SDS011;5882;48.818;9.114;2023-06-19T15:00:43;31.55;;;30.35;;
11651;SDS011;5882;48.818;9.114;2023-06-19T15:03:28;27.30;;;26.25;;
11651;SDS011;5882;48.818;9.114;2023-06-19T15:06:13;23.30;;;22.42;;
11651;SDS011;5882;48.818;9.114;2023-06-19T15:08:58;13.73;;;13.23;;
11651;SDS011;5882;48.818;9.114;2023-06-19T15:11:43;15.93;;;15.32;;
11651;SDS011;5882;48.818;9.114;2023-06-19T15:14:28;13.57;;;13.07;;
11651;SDS011;5882;48.818;9.114;2023-06-19T15:17:15;16.90;;;16.23;;
11651;SDS011;5882;48.818;9.114;2023-06-19T15:20:00;17.38;;;16.70;;
11651;SDS011;5882;48.818;9.114;2023-06-19T15:22:45;21.90;;;21.05;;
11651;SDS011;5882;48.818;9.114;2023-06-19T15:25:30;21.10;;;20.30;;
11651;SDS011;5882;48.818;9.114;2023-06-19T15:28:15;19.27;;;18.55;;
11651;SDS011;5882;48.818;9.114;2023-06-19T15:31:02;19.20;;;18.50;;
11651;SDS011;5882;48.818;9.114;2023-06-19T15:33:48;19.13;;;18.40;;
11651;SDS011;5882;48.818;9.114;2023-06-19T15:36:33;18.13;;;17.45;;
11651;SDS011;5882;48.818;9.114;2023-06-19T15:39:19;19.02;;;18.30;;
11651;SDS011;5882;48.818;9.114;2023-06-19T15:42:04;17.13;;;16.48;;
11651;SDS011;5882;48.818;9.114;2023-06-19T15:44:49;21.77;;;20.92;;
11651;SDS011;5882;48.818;9.114;2023-06-19T15:47:34;17.48;;;16.80;;
11651;SDS011;5882;48.818;9.114;2023-06-19T15:50:21;19.33;;;18.60;;
11651;SDS011;5882;48.818;9.114;2023-06-19T15:53:06;21.42;;;20.63;;
11651;SDS011;5882;48.818;9.114;2023-06-19T15:55:51;24.65;;;23.73;;
11651;SDS011;5882;48.818;9.114;2023-06-19T15:58:36;28.90;;;27.77;;
11651;SDS011;5882;48.818;9.114;2023-06-19T16:01:22;30.25;;;29.05;;
11651;SDS011;5882;48.818;9.114;2023-06-19T16:04:07;18.27;;;17.58;;
11651;SDS011;5882;48.818;9.114;2023-06-19T16:06:54;32.53;;;31.27;;
11651;SDS011;5882;48.818;9.114;2023-06-19T16:09:39;54.65;;;52.50;;
11651;SDS011;5882;48.818;9.114;2023-06-19T16:12:24;48.78;;;46.88;;
11651;SDS011;5882;48.818;9.114;2023-06-19T16:15:09;32.20;;;30.95;;
11651;SDS011;5882;48.818;9.114;2023-06-19T16:17:56;12.13;;;11.65;;
11651;SDS011;5882;48.818;9.114;2023-06-19T16:20:41;22.50;;;21.63;;
11651;SDS011;5882;48.818;9.114;2023-06-19T16:23:28;14.00;;;13.50;;
11651;SDS011;5882;48.818;9.114;2023-06-19T16:26:13;17.35;;;16.65;;
11651;SDS011;5882;48.818;9.114;2023-06-19T16:28:59;10.63;;;10.23;;
11651;SDS011;5882;48.818;9.114;2023-06-19T16:31:44;14.70;;;14.10;;
11651;SDS011;5882;48.818;9.114;2023-06-19T16:34:29;26.05;;;25.05;;
11651;SDS011;5882;48.818;9.114;2023-06-19T16:37:14;32.38;;;31.13;;
11651;SDS011;5882;48.818;9.114;2023-06-19T16:40:00;37.50;;;36.03;;
11651;SDS011;5882;48.818;9.114;2023-06-19T16:42:48;34.08;;;32.78;;
11651;SDS011;5882;48.818;9.114;2023-06-19T16:45:33;30.08;;;28.88;;
11651;SDS011;5882;48.818;9.114;2023-06-19T16:48:18;27.85;;;26.75;;
11651;SDS011;5882;48.818;9.114;2023-06-19T16:51:04;18.00;;;17.20;;
11651;SDS011;5882;48.818;9.114;2023-06-19T16:53:49;17.08;;;16.38;;
11651;SDS011;5882;48.818;9.114;2023-06-19T16:56:40;15.23;;;14.60;;
11651;SDS011;5882;48.818;9.114;2023-06-19T16:59:25;17.23;;;16.52;;
11651;SDS011;5882;48.818;9.114;2023-06-19T17:02:10;34.67;;;33.30;;
11651;SDS011;5882;48.818;9.114;2023-06-19T17:04:55;18.50;;;17.80;;
11651;SDS011;5882;48.818;9.114;2023-06-19T17:07:40;35.88;;;34.47;;
11651;SDS011;5882;48.818;9.114;2023-06-19T17:10:25;40.75;;;39.15;;
11651;SDS011;5882;48.818;9.114;2023-06-19T17:13:13;43.15;;;41.45;;
11651;SDS011;5882;48.818;9.114;2023-06-19T17:15:58;17.25;;;16.60;;
11651;SDS011;5882;48.818;9.114;2023-06-19T17:18:45;26.05;;;25.05;;
11651;SDS011;5882;48.818;9.114;2023-06-19T17:21:31;23.13;;;22.17;;
11651;SDS011;5882;48.818;9.114;2023-06-19T17:24:16;18.77;;;18.02;;
11651;SDS011;5882;48.818;9.114;2023-06-19T17:27:02;23.45;;;22.55;;
11651;SDS011;5882;48.818;9.114;2023-06-19T17:29:48;19.25;;;18.52;;
11651;SDS011;5882;48.818;9.114;2023-06-19T17:32:35;17.58;;;16.88;;
11651;SDS011;5882;48.818;9.114;2023-06-19T17:35:20;20.77;;;19.98;;
11651;SDS011;5882;48.818;9.114;2023-06-19T17:38:05;22.02;;;21.13;;
11651;SDS011;5882;48.818;9.114;2023-06-19T17:40:50;23.75;;;22.85;;
11651;SDS011;5882;48.818;9.114;2023-06-19T17:43:36;25.02;;;24.08;;
11651;SDS011;5882;48.818;9.114;2023-06-19T17:46:25;27.23;;;26.20;;
11651;SDS011;5882;48.818;9.114;2023-06-19T17:49:11;26.27;;;25.27;;
11651;SDS011;5882;48.818;9.114;2023-06-19T17:51:58;28.95;;;27.85;;
11651;SDS011;5882;48.818;9.114;2023-06-19T17:54:46;31.48;;;30.25;;
11651;SDS011;5882;48.818;9.114;2023-06-19T17:57:34;29.25;;;28.15;;
11651;SDS011;5882;48.818;9.114;2023-06-19T18:00:19;27.30;;;26.30;;
11651;SDS011;5882;48.818;9.114;2023-06-19T18:03:06;26.85;;;25.85;;
11651;SDS011;5882;48.818;9.114;2023-06-19T18:05:53;24.35;;;23.42;;
11651;SDS011;5882;48.818;9.114;2023-06-19T18:08:38;25.25;;;24.15;;
11651;SDS011;5882;48.818;9.114;2023-06-19T18:11:25;22.75;;;21.80;;
11651;SDS011;5882;48.818;9.114;2023-06-19T18:14:11;20.75;;;19.98;;
11651;SDS011;5882;48.818;9.114;2023-06-19T18:16:57;29.77;;;28.55;;
11651;SDS011;5882;48.818;9.114;2023-06-19T18:19:46;18.95;;;18.25;;
11651;SDS011;5882;48.818;9.114;2023-06-19T18:22:31;14.50;;;13.93;;
11651;SDS011;5882;48.818;9.114;2023-06-19T18:25:19;18.20;;;17.50;;
11651;SDS011;5882;48.818;9.114;2023-06-19T18:28:04;20.75;;;19.95;;
11651;SDS011;5882;48.818;9.114;2023-06-19T18:30:49;23.38;;;22.40;;
11651;SDS011;5882;48.818;9.114;2023-06-19T18:33:38;23.35;;;22.45;;
11651;SDS011;5882;48.818;9.114;2023-06-19T18:36:28;21.10;;;20.30;;
11651;SDS011;5882;48.818;9.114;2023-06-19T18:39:14;23.23;;;22.38;;
11651;SDS011;5882;48.818;9.114;2023-06-19T18:42:02;25.67;;;24.67;;
11651;SDS011;5882;48.818;9.114;2023-06-19T18:44:55;23.13;;;22.23;;
11651;SDS011;5882;48.818;9.114;2023-06-19T18:47:40;19.75;;;18.98;;
11651;SDS011;5882;48.818;9.114;2023-06-19T18:50:25;16.33;;;15.65;;
11651;SDS011;5882;48.818;9.114;2023-06-19T18:53:11;17.95;;;17.25;;
11651;SDS011;5882;48.818;9.114;2023-06-19T18:55:56;13.32;;;12.82;;
11651;SDS011;5882;48.818;9.114;2023-06-19T18:58:41;9.63;;;9.23;;
11651;SDS011;5882;48.818;9.114;2023-06-19T19:01:26;7.68;;;7.38;;
11651;SDS011;5882;48.818;9.114;2023-06-19T19:04:14;9.52;;;9.13;;
11651;SDS011;5882;48.818;9.114;2023-06-19T19:06:59;8.52;;;8.15;;
11651;SDS011;5882;48.818;9.114;2023-06-19T19:09:45;8.25;;;7.95;;
11651;SDS011;5882;48.818;9.114;2023-06-19T19:12:35;7.85;;;7.55;;
11651;SDS011;5882;48.818;9.114;2023-06-19T19:15:23;7.70;;;7.40;;
11651;SDS011;5882;48.818;9.114;2023-06-19T19:18:08;9.20;;;8.80;;
11651;SDS011;5882;48.818;9.114;2023-06-19T19:20:53;8.27;;;7.97;;
11651;SDS011;5882;48.818;9.114;2023-06-19T19:23:38;9.63;;;9.23;;
11651;SDS011;5882;48.818;9.114;2023-06-19T19:26:25;8.50;;;8.20;;
11651;SDS011;5882;48.818;9.114;2023-06-19T19:29:10;7.88;;;7.57;;
11651;SDS011;5882;48.818;9.114;2023-06-19T19:31:55;8.10;;;7.80;;
11651;SDS011;5882;48.818;9.114;2023-06-19T19:34:41;8.95;;;8.55;;
11651;SDS011;5882;48.818;9.114;2023-06-19T19:37:26;10.43;;;10.02;;
11651;SDS011;5882;48.818;9.114;2023-06-19T19:40:12;8.57;;;8.18;;
11651;SDS011;5882;48.818;9.114;2023-06-19T19:42:58;8.38;;;8.07;;
11651;SDS011;5882;48.818;9.114;2023-06-19T19:45:45;8.82;;;8.52;;
11651;SDS011;5882;48.818;9.114;2023-06-19T19:48:30;8.50;;;8.20;;
11651;SDS011;5882;48.818;9.114;2023-06-19T19:51:15;9.35;;;8.95;;
11651;SDS011;5882;48.818;9.114;2023-06-19T19:54:00;11.90;;;11.40;;
11651;SDS011;5882;48.818;9.114;2023-06-19T19:56:46;6.70;;;6.40;;
11651;SDS011;5882;48.818;9.114;2023-06-19T19:59:33;6.30;;;6.00;;
11651;SDS011;5882;48.818;9.114;2023-06-19T20:02:18;6.68;;;6.38;;
11651;SDS011;5882;48.818;9.114;2023-06-19T20:05:03;6.53;;;6.32;;
11651;SDS011;5882;48.818;9.114;2023-06-19T20:07:48;7.20;;;6.90;;
11651;SDS011;5882;48.818;9.114;2023-06-19T20:10:37;7.82;;;7.53;;
11651;SDS011;5882;48.818;9.114;2023-06-19T20:13:22;8.38;;;8.07;;
11651;SDS011;5882;48.818;9.114;2023-06-19T20:16:08;7.95;;;7.65;;
11651;SDS011;5882;48.818;9.114;2023-06-19T20:18:53;8.25;;;7.90;;